Snow/Ice From: 16-12-2017 16:00 Until: 17-12-2017 16:00 warning for: Snow/Ice Level: Yellow info button

Although rather usual in this region, locally or potentially dangerous phenomena are expected. (such as local winds, summer thunderstorms, rising streams or high waves) Be aware and pay attention to the latest weather updates, especially if you carry out activities exposed to weather or close to a stream or shoreline. 


Meteo18 Weather Cam more information Meteo18 Weather Cam


Thunder radar more information blitzortung!


warning for Snow/Ice more information rain snow radar


Visit our other weather sites:

Template documentation
and downloads

And another site



Weather Underground History page Text

Daily Summary for November 22, 2017 Units:  English    Metric   Both
« Previous Day
Next Day »
Daily Weekly Monthly Yearly Custom
  High: Low: Average:
Temperature: 59.7 °F 34.9 °F 47.1 °F
Dew Point: 47.7 °F 34.5 °F 41.7 °F
Humidity: 100 % 62 % 83 %
Wind Speed: 4 mph 0 mph 1.1 mph
Wind Gust: 6 mph - -
Wind:- - SSW
Pressure: 30 in 29.8 in -
Precipitation: 0 in    
Historical Graphs
 
 
Tabular Data for November 22, 2017
Time Temperature Dew Point Pressure Wind Wind Speed Wind Gust Humidity Rainfall Rate (Hourly)
00:02 39.2 °F 38.5 °F 30 in Calm   1 mph 97 % 0 in
00:07 39 °F 38.3 °F 30 in Calm   1 mph 97 % 0 in
00:12 38.8 °F 38.1 °F 30 in Calm   1 mph 97 % 0 in
00:22 38.5 °F 37.8 °F 30 in SSW 1 mph 1 mph 97 % 0 in
00:32 38.1 °F 37.4 °F 30 in Calm   2 mph 97 % 0 in
01:02 38.3 °F 37.6 °F 30 in Calm   1 mph 97 % 0 in
01:12 38.1 °F 37.4 °F 30 in Calm   1 mph 97 % 0 in
01:32 39.2 °F 38.5 °F 30 in Calm   2 mph 97 % 0 in
01:42 39.2 °F 38.5 °F 30 in Calm   2 mph 97 % 0 in
01:47 38.7 °F 37.9 °F 30 in Calm   2 mph 97 % 0 in
02:02 37 °F 36 °F 30 in Calm   1 mph 96 % 0 in
02:12 36.7 °F 36 °F 30 in Calm   1 mph 97 % 0 in
02:17 36.3 °F 35.6 °F 30 in Calm     97 % 0 in
02:32 36 °F 35.2 °F 30 in Calm     97 % 0 in
02:42 36 °F 35.2 °F 30 in Calm     97 % 0 in
02:47 36 °F 35.2 °F 30 in Calm     97 % 0 in
02:52 36 °F 35.2 °F 30 in Calm     97 % 0 in
02:57 35.8 °F 35.1 °F 30 in Calm     97 % 0 in
03:12 35.4 °F 34.7 °F 30 in Calm     97 % 0 in
03:17 35.4 °F 34.7 °F 30 in Calm     97 % 0 in
03:22 34.9 °F 34.9 °F 30 in Calm     100 % 0 in
03:27 34.9 °F 34.9 °F 30 in Calm     100 % 0 in
08:47 35.1 °F 34.5 °F 30 in WNW 1 mph -998.7 mph 98 % 0 in
09:02 35.4 °F 34.9 °F 30 in Calm   2 mph 98 % 0 in
09:12 35.4 °F 34.7 °F 30 in Calm   1 mph 97 % 0 in
09:17 35.8 °F 35.1 °F 30 in Calm   1 mph 97 % 0 in
09:27 36.7 °F 36 °F 30 in Calm     97 % 0 in
09:37 37.4 °F 36.9 °F 29.9 in Calm   1 mph 98 % 0 in
09:47 37.8 °F 37 °F 29.9 in Calm   2 mph 97 % 0 in
10:02 38.7 °F 37.9 °F 29.9 in SW 1 mph 3 mph 97 % 0 in
10:17 39.9 °F 39.2 °F 29.9 in Calm   2 mph 97 % 0 in
10:22 41.5 °F 41 °F 29.9 in Calm   1 mph 98 % 0 in
10:32 42.3 °F 41.7 °F 29.9 in Calm     98 % 0 in
10:37 41.5 °F 40.8 °F 29.9 in Calm     97 % 0 in
10:47 41.7 °F 41 °F 29.9 in Calm     97 % 0 in
10:57 42.4 °F 41.7 °F 29.9 in Calm     97 % 0 in
11:02 43 °F 42.3 °F 29.9 in SW 1 mph   97 % 0 in
11:17 43.3 °F 42.1 °F 29.9 in SW 1 mph 2 mph 95 % 0 in
11:32 45.1 °F 43.5 °F 29.9 in Calm   2 mph 94 % 0 in
11:37 45.5 °F 43.3 °F 29.9 in SW 1 mph 2 mph 92 % 0 in
11:42 45.9 °F 43.3 °F 29.9 in Calm   1 mph 91 % 0 in
11:47 46.4 °F 43.3 °F 29.9 in Calm   2 mph 89 % 0 in
11:52 46.9 °F 43.9 °F 29.9 in South 1 mph 2 mph 89 % 0 in
12:02 48.2 °F 44.6 °F 29.9 in Calm   2 mph 87 % 0 in
12:12 49.3 °F 45 °F 29.9 in Calm   2 mph 85 % 0 in
12:17 49.6 °F 44.4 °F 29.9 in SSE 1 mph 2 mph 82 % 0 in
12:27 50.5 °F 45 °F 29.9 in SSE 1 mph 2 mph 81 % 0 in
12:32 51.1 °F 44.8 °F 29.9 in Calm   2 mph 79 % 0 in
12:42 51.8 °F 45.5 °F 29.9 in SE 1 mph 3 mph 79 % 0 in
12:47 52 °F 45.3 °F 29.9 in South 2 mph 3 mph 78 % 0 in
12:52 52.2 °F 45.1 °F 29.9 in Calm   2 mph 77 % 0 in
13:02 53.1 °F 46 °F 29.9 in Calm   2 mph 77 % 0 in
13:12 53.2 °F 46.2 °F 29.9 in Calm   2 mph 77 % 0 in
13:17 53.8 °F 46.4 °F 29.9 in SW 1 mph 3 mph 76 % 0 in
13:22 54.1 °F 46 °F 29.9 in SW 1 mph 3 mph 74 % 0 in
13:32 55.2 °F 47.5 °F 29.9 in SW 1 mph 4 mph 75 % 0 in
13:37 55.6 °F 47.5 °F 29.9 in SSW 1 mph 4 mph 74 % 0 in
13:42 55.9 °F 47.1 °F 29.9 in SSW 2 mph 4 mph 72 % 0 in
14:02 57.4 °F 46.9 °F 29.8 in South 2 mph 5 mph 68 % 0 in
14:42 59 °F 47.3 °F 29.8 in South 2 mph 6 mph 65 % 0 in
14:52 59.4 °F 47.1 °F 29.8 in SE 2 mph 5 mph 64 % 0 in
15:02 59.4 °F 46.8 °F 29.8 in SE 3 mph 6 mph 63 % 0 in
15:12 59.2 °F 46.6 °F 29.8 in ESE 2 mph 4 mph 63 % 0 in
15:17 59.5 °F 46.6 °F 29.8 in SSW 2 mph 4 mph 62 % 0 in
15:32 59.7 °F 47.1 °F 29.8 in SE 1 mph 4 mph 63 % 0 in
15:37 59.7 °F 47.5 °F 29.8 in SE 1 mph 4 mph 64 % 0 in
15:42 59.5 °F 46.9 °F 29.8 in Calm   3 mph 63 % 0 in
15:57 59 °F 47.3 °F 29.8 in SE 1 mph 4 mph 65 % 0 in
16:02 58.8 °F 46.2 °F 29.8 in Calm   4 mph 63 % 0 in
16:12 59 °F 46.8 °F 29.8 in SSE 1 mph 3 mph 64 % 0 in
16:17 59.4 °F 47.7 °F 29.8 in SSW 1 mph 2 mph 65 % 0 in
16:22 58.8 °F 47.1 °F 29.8 in SW 2 mph 3 mph 65 % 0 in
16:52 56.5 °F 46.4 °F 29.8 in SW 2 mph 4 mph 69 % 0 in
16:57 55.9 °F 46.2 °F 29.8 in SW 4 mph 5 mph 70 % 0 in
17:02 55.4 °F 46.2 °F 29.8 in SSW 2 mph 5 mph 71 % 0 in
17:12 54.7 °F 46.2 °F 29.8 in SSW 2 mph 5 mph 73 % 0 in
17:17 54.1 °F 46 °F 29.8 in South 1 mph 5 mph 74 % 0 in
17:22 53.8 °F 46 °F 29.8 in SW 1 mph 4 mph 75 % 0 in
17:32 53.4 °F 46 °F 29.8 in Calm   3 mph 76 % 0 in
17:37 53.2 °F 45.5 °F 29.8 in Calm   2 mph 75 % 0 in
17:42 52.9 °F 45.5 °F 29.8 in SW 1 mph 2 mph 76 % 0 in
17:47 52.5 °F 45.1 °F 29.8 in SSW 2 mph 2 mph 76 % 0 in
17:52 52.5 °F 44.8 °F 29.8 in Calm   3 mph 75 % 0 in
18:02 52.2 °F 44.8 °F 29.8 in SSW 1 mph 3 mph 76 % 0 in
18:12 51.4 °F 44.4 °F 29.8 in SSW 1 mph 3 mph 77 % 0 in
18:22 50.9 °F 44.2 °F 29.8 in SW 1 mph 3 mph 78 % 0 in
18:27 50.5 °F 43.9 °F 29.8 in SW 1 mph 3 mph 78 % 0 in
18:32 50.4 °F 43.7 °F 29.8 in WSW 1 mph 3 mph 78 % 0 in
18:37 50.4 °F 44.1 °F 29.8 in SSW 1 mph 3 mph 79 % 0 in
18:52 49.6 °F 43.7 °F 29.8 in SSW 1 mph 3 mph 80 % 0 in
19:02 49.6 °F 43.7 °F 29.8 in SSW 2 mph 4 mph 80 % 0 in
19:12 49.5 °F 43.2 °F 29.8 in SSW 4 mph 5 mph 79 % 0 in
19:22 48.6 °F 43 °F 29.8 in SSW 4 mph 5 mph 81 % 0 in
19:32 48.9 °F 43 °F 29.8 in SSW 4 mph 5 mph 80 % 0 in
19:37 49.1 °F 42.8 °F 29.8 in SSW 2 mph 5 mph 79 % 0 in
19:42 49.3 °F 43 °F 29.8 in SSW 3 mph 6 mph 79 % 0 in
19:47 49.3 °F 43 °F 29.8 in SSW 3 mph 6 mph 79 % 0 in
20:02 48.7 °F 42.4 °F 29.8 in SSW 2 mph 4 mph 79 % 0 in
20:17 48 °F 41.5 °F 29.8 in SSW 2 mph 4 mph 78 % 0 in
20:22 48 °F 41.9 °F 29.8 in WSW 3 mph 4 mph 79 % 0 in
20:32 48.4 °F 41.5 °F 29.8 in SSW 1 mph 4 mph 77 % 0 in
20:42 48 °F 41.2 °F 29.8 in SW 2 mph 4 mph 77 % 0 in
20:47 47.7 °F 40.8 °F 29.8 in SSW 3 mph 4 mph 77 % 0 in
20:52 47.5 °F 41 °F 29.8 in SSW 3 mph 4 mph 78 % 0 in
21:02 46.9 °F 40.5 °F 29.8 in SSW 3 mph 5 mph 78 % 0 in
21:12 46 °F 39.6 °F 29.8 in South 3 mph 6 mph 78 % 0 in
21:17 45.1 °F 39 °F 29.8 in SSW 3 mph 6 mph 79 % 0 in
21:22 45.5 °F 39.7 °F 29.8 in SW 2 mph 5 mph 80 % 0 in
21:32 46.2 °F 39.4 °F 29.8 in South 2 mph 6 mph 77 % 0 in
21:47 46 °F 39.2 °F 29.8 in SSE 2 mph 4 mph 77 % 0 in
21:57 46.2 °F 39.4 °F 29.8 in SSE 3 mph 4 mph 77 % 0 in
22:02 46.2 °F 39.4 °F 29.8 in South 1 mph 4 mph 77 % 0 in
22:17 46.4 °F 39.9 °F 29.8 in Calm   4 mph 78 % 0 in
22:22 46 °F 39.6 °F 29.8 in SSW 1 mph 4 mph 78 % 0 in
22:32 46 °F 39.9 °F 29.8 in SSW 1 mph 2 mph 79 % 0 in
22:42 46 °F 39.9 °F 29.8 in SW 2 mph 2 mph 79 % 0 in
22:47 45.9 °F 39.7 °F 29.8 in Calm   3 mph 79 % 0 in
22:52 45.9 °F 40.1 °F 29.8 in SE 3 mph 3 mph 80 % 0 in
22:57 46 °F 40.3 °F 29.8 in SSE 1 mph 3 mph 80 % 0 in
23:02 45.9 °F 39.7 °F 29.8 in SSW 2 mph 3 mph 79 % 0 in
23:12 45.9 °F 40.3 °F 29.8 in SSE 1 mph 3 mph 81 % 0 in
23:27 45.7 °F 40.1 °F 29.8 in South 1 mph 2 mph 81 % 0 in
23:32 45.9 °F 40.6 °F 29.8 in South 1 mph 2 mph 82 % 0 in
23:42 45.9 °F 40.6 °F 29.8 in South 1 mph 2 mph 82 % 0 in
23:47 45.9 °F 41 °F 29.8 in Calm   2 mph 83 % 0 in
23:52 46 °F 40.8 °F 29.8 in South 1 mph 2 mph 82 % 0 in
Meteo18
Compliments of Weather Underground - 4 mb

Script developed by  Jim McMurry - jmcmurry@mwt.net Adapted for the template by  Wim van der Kuil - Leuven-Template.eu

You find our weather info also at:

European Weather Network

Weather Underground

Equipment we use:

Weather-station
Davis Vue

Weather-program
Meteohub

Weather-server
Raspberry PI 2 B+

Provider
1 and 1

Davis Vue

Meteohub

Raspberry PI 2 B+

1 and 1